Time;durP1;ratioP1;P1;durP2;ratioP2;P2;SDS_P1;SDS_P2;PMS_P1;PMS_P2;Temp;Humidity;BMP_temperature;BMP_pressure;BME280_temperature;BME280_humidity;BME280_pressure;Samples;Min_cycle;Max_cycle;Signal;HPM_P1;HPM_P2
2023/04/22 00:02:12;;;;;;;5.80;5.28;;;;;;;;;;5045077;28;20664;-51
2023/04/22 00:04:38;;;;;;;9.80;5.97;;;;;;;;;;5041547;28;20239;-50
2023/04/22 00:07:05;;;;;;;7.65;6.07;;;;;;;;;;5037749;28;20310;-53
2023/04/22 00:09:31;;;;;;;12.80;6.15;;;;;;;;;;5042672;28;20259;-51
2023/04/22 00:11:58;;;;;;;5.95;5.35;;;;;;;;;;5043327;28;20242;-50
2023/04/22 00:14:25;;;;;;;5.45;4.90;;;;;;;;;;5044290;28;20286;-54
2023/04/22 00:16:52;;;;;;;7.13;5.78;;;;;;;;;;5045207;28;20228;-52
2023/04/22 00:19:19;;;;;;;10.60;6.47;;;;;;;;;;5044392;28;20235;-51
2023/04/22 00:21:45;;;;;;;7.32;5.82;;;;;;;;;;5043528;28;20223;-52
2023/04/22 00:24:12;;;;;;;6.90;5.82;;;;;;;;;;5043110;28;20232;-51
2023/04/22 00:26:39;;;;;;;7.82;5.88;;;;;;;;;;5043735;28;20354;-51
2023/04/22 00:29:05;;;;;;;6.32;5.70;;;;;;;;;;5039961;28;20236;-50
2023/04/22 00:31:33;;;;;;;7.15;6.45;;;;;;;;;;5042862;28;20242;-51
2023/04/22 00:34:00;;;;;;;6.43;5.72;;;;;;;;;;5032377;28;20239;-53
2023/04/22 00:36:26;;;;;;;6.63;6.03;;;;;;;;;;5039043;28;20224;-51
2023/04/22 00:38:53;;;;;;;9.27;5.40;;;;;;;;;;5045186;28;20343;-50
2023/04/22 00:41:20;;;;;;;5.43;4.93;;;;;;;;;;5042427;28;20240;-52
2023/04/22 00:43:48;;;;;;;6.22;5.47;;;;;;;;;;5039359;28;20302;-53
2023/04/22 00:46:15;;;;;;;7.30;6.03;;;;;;;;;;5040593;28;20239;-53
2023/04/22 00:48:44;;;;;;;7.95;6.57;;;;;;;;;;5035969;28;20750;-52
2023/04/22 00:51:10;;;;;;;5.85;5.25;;;;;;;;;;5043642;28;20240;-51
2023/04/22 00:53:37;;;;;;;8.30;6.88;;;;;;;;;;5041325;28;20772;-51
2023/04/22 00:56:03;;;;;;;8.57;5.97;;;;;;;;;;5038157;28;20238;-51
2023/04/22 00:58:30;;;;;;;8.05;5.88;;;;;;;;;;5043511;28;20618;-51
2023/04/22 01:00:58;;;;;;;7.93;5.93;;;;;;;;;;5044381;28;20812;-52
2023/04/22 01:03:27;;;;;;;6.70;5.60;;;;;;;;;;5042257;28;20260;-51
2023/04/22 01:05:56;;;;;;;7.28;5.93;;;;;;;;;;5031923;28;20227;-51
2023/04/22 01:08:24;;;;;;;9.25;5.97;;;;;;;;;;5042741;28;20311;-52
2023/04/22 01:10:51;;;;;;;6.03;5.43;;;;;;;;;;5041282;28;20267;-50
2023/04/22 01:13:17;;;;;;;6.78;5.93;;;;;;;;;;5039422;28;20296;-51
2023/04/22 01:15:44;;;;;;;8.65;6.43;;;;;;;;;;5043664;28;20232;-50
2023/04/22 01:18:11;;;;;;;6.65;5.95;;;;;;;;;;5042528;28;20235;-52
2023/04/22 01:20:37;;;;;;;6.53;5.78;;;;;;;;;;5042892;28;20267;-51
2023/04/22 01:23:12;;;;;;;6.55;5.85;;;;;;;;;;5044216;28;20231;-57
2023/04/22 01:25:40;;;;;;;9.50;5.88;;;;;;;;;;5043760;28;20224;-52
2023/04/22 01:28:07;;;;;;;6.65;6.00;;;;;;;;;;5048467;28;20242;-55
2023/04/22 01:30:34;;;;;;;6.00;5.40;;;;;;;;;;5049731;28;20240;-50
2023/04/22 01:33:01;;;;;;;7.30;6.25;;;;;;;;;;5050351;28;20243;-50
2023/04/22 01:35:29;;;;;;;6.93;5.80;;;;;;;;;;5045027;28;20671;-51
2023/04/22 01:37:56;;;;;;;7.55;5.68;;;;;;;;;;5042534;28;20240;-52
2023/04/22 01:40:24;;;;;;;8.38;5.75;;;;;;;;;;5041212;28;20240;-51
2023/04/22 01:42:52;;;;;;;8.55;5.80;;;;;;;;;;5037998;28;20236;-51
2023/04/22 01:45:19;;;;;;;6.63;5.55;;;;;;;;;;5043676;28;20262;-52
2023/04/22 01:47:46;;;;;;;6.70;5.32;;;;;;;;;;5041408;28;20823;-51
2023/04/22 01:50:13;;;;;;;6.80;6.18;;;;;;;;;;5042249;28;20239;-51
2023/04/22 01:52:39;;;;;;;6.95;6.18;;;;;;;;;;5045683;28;20231;-51
2023/04/22 01:55:07;;;;;;;9.07;5.30;;;;;;;;;;5047222;28;20240;-52
2023/04/22 01:57:34;;;;;;;10.48;5.88;;;;;;;;;;5047183;28;20236;-54
2023/04/22 02:00:04;;;;;;;6.43;5.82;;;;;;;;;;5055723;28;20239;-54
2023/04/22 02:02:31;;;;;;;7.75;6.22;;;;;;;;;;5058535;28;20236;-51
2023/04/22 02:04:57;;;;;;;6.18;5.57;;;;;;;;;;5048028;28;20220;-52
2023/04/22 02:07:24;;;;;;;9.68;5.82;;;;;;;;;;5042612;28;20323;-53
2023/04/22 02:09:51;;;;;;;7.35;5.82;;;;;;;;;;5045472;28;20251;-52
2023/04/22 02:12:17;;;;;;;9.32;6.45;;;;;;;;;;5044673;28;20255;-51
2023/04/22 02:14:44;;;;;;;6.90;6.07;;;;;;;;;;5047318;28;20311;-50
2023/04/22 02:17:12;;;;;;;7.25;6.40;;;;;;;;;;5045693;28;20247;-52
2023/04/22 02:19:38;;;;;;;7.22;5.82;;;;;;;;;;5045457;28;20235;-50
2023/04/22 02:22:05;;;;;;;6.68;5.97;;;;;;;;;;5036519;28;20326;-52
2023/04/22 02:24:31;;;;;;;6.70;5.68;;;;;;;;;;5041396;28;20270;-52
2023/04/22 02:26:59;;;;;;;6.53;5.93;;;;;;;;;;5047290;28;20266;-52
2023/04/22 02:29:26;;;;;;;9.02;5.13;;;;;;;;;;5045856;28;20232;-52
2023/04/22 02:31:52;;;;;;;6.72;5.85;;;;;;;;;;5046412;28;20239;-50
2023/04/22 02:34:20;;;;;;;7.65;5.78;;;;;;;;;;5045855;28;20236;-51
2023/04/22 02:36:47;;;;;;;7.20;5.78;;;;;;;;;;5044352;28;20997;-51
2023/04/22 02:39:14;;;;;;;7.10;6.20;;;;;;;;;;5045463;28;20315;-52
2023/04/22 02:41:40;;;;;;;6.65;6.05;;;;;;;;;;5047074;28;20243;-52
2023/04/22 02:44:07;;;;;;;8.57;6.57;;;;;;;;;;5041258;28;20310;-51
2023/04/22 02:46:34;;;;;;;7.05;5.82;;;;;;;;;;5045673;28;20305;-52
2023/04/22 02:49:00;;;;;;;7.72;6.03;;;;;;;;;;5044937;28;20239;-51
2023/04/22 02:51:28;;;;;;;9.35;5.75;;;;;;;;;;5045719;28;20229;-52
2023/04/22 02:53:55;;;;;;;7.28;5.70;;;;;;;;;;5046518;28;20244;-52
2023/04/22 02:56:21;;;;;;;7.55;6.30;;;;;;;;;;5045775;28;20255;-52
2023/04/22 02:58:48;;;;;;;7.10;5.47;;;;;;;;;;5044239;28;20318;-52
2023/04/22 03:01:14;;;;;;;6.63;5.65;;;;;;;;;;5045250;28;20289;-50
2023/04/22 03:03:41;;;;;;;8.88;5.88;;;;;;;;;;5040595;28;20251;-52
2023/04/22 03:06:08;;;;;;;5.80;5.07;;;;;;;;;;5046134;28;20244;-51
2023/04/22 03:08:36;;;;;;;6.57;5.72;;;;;;;;;;5044986;28;20251;-51
2023/04/22 03:11:02;;;;;;;6.95;6.20;;;;;;;;;;5045113;28;20801;-51
2023/04/22 03:13:29;;;;;;;7.95;6.63;;;;;;;;;;5039275;28;20236;-52
2023/04/22 03:15:55;;;;;;;7.00;5.95;;;;;;;;;;5045993;28;20243;-51
2023/04/22 03:18:22;;;;;;;6.88;6.28;;;;;;;;;;5039742;28;20232;-51
2023/04/22 03:20:49;;;;;;;7.57;6.38;;;;;;;;;;5039610;28;20239;-51
2023/04/22 03:23:16;;;;;;;6.18;5.43;;;;;;;;;;5046023;28;20254;-51
2023/04/22 03:25:44;;;;;;;7.88;6.30;;;;;;;;;;5042657;28;20228;-51
2023/04/22 03:28:10;;;;;;;7.10;6.20;;;;;;;;;;5036194;28;20330;-52
2023/04/22 03:30:37;;;;;;;11.85;6.05;;;;;;;;;;5043995;28;20659;-50
2023/04/22 03:33:04;;;;;;;7.95;6.65;;;;;;;;;;5044363;28;20244;-51
2023/04/22 03:35:30;;;;;;;8.85;6.50;;;;;;;;;;5045364;28;20223;-51
2023/04/22 03:37:57;;;;;;;8.38;6.80;;;;;;;;;;5041897;28;20247;-51
2023/04/22 03:40:23;;;;;;;7.00;6.23;;;;;;;;;;5044204;28;20285;-51
2023/04/22 03:42:51;;;;;;;8.50;6.40;;;;;;;;;;5043726;28;20628;-52
2023/04/22 03:45:18;;;;;;;6.93;6.23;;;;;;;;;;5044499;28;20297;-51
2023/04/22 03:47:44;;;;;;;6.95;6.25;;;;;;;;;;5036164;28;20290;-51
2023/04/22 03:50:11;;;;;;;7.03;6.33;;;;;;;;;;5043609;28;20259;-50
2023/04/22 03:52:38;;;;;;;7.28;6.50;;;;;;;;;;5042873;28;20232;-51
2023/04/22 03:55:05;;;;;;;10.20;6.38;;;;;;;;;;5044552;28;20281;-51
2023/04/22 03:57:31;;;;;;;8.45;6.95;;;;;;;;;;5044799;28;20239;-51
2023/04/22 03:59:59;;;;;;;6.55;5.95;;;;;;;;;;5047118;28;20736;-52
2023/04/22 04:02:26;;;;;;;6.85;6.20;;;;;;;;;;5043808;28;20343;-50
2023/04/22 04:04:53;;;;;;;7.20;6.50;;;;;;;;;;5046179;28;20232;-52
2023/04/22 04:07:19;;;;;;;7.43;6.57;;;;;;;;;;5043470;28;22470;-52
2023/04/22 04:09:46;;;;;;;7.60;6.32;;;;;;;;;;5048718;28;20282;-53
2023/04/22 04:12:13;;;;;;;9.10;7.22;;;;;;;;;;5045884;28;20232;-52
2023/04/22 04:14:40;;;;;;;8.15;6.68;;;;;;;;;;5039745;28;20266;-52
2023/04/22 04:17:08;;;;;;;7.88;7.13;;;;;;;;;;5040951;28;20244;-52
2023/04/22 04:19:35;;;;;;;8.13;6.65;;;;;;;;;;5029734;28;20307;-51
2023/04/22 04:22:02;;;;;;;7.97;6.80;;;;;;;;;;5037450;28;20236;-51
2023/04/22 04:24:29;;;;;;;10.68;6.43;;;;;;;;;;5043206;28;20231;-51
2023/04/22 04:26:56;;;;;;;7.87;6.97;;;;;;;;;;5042357;28;20235;-51
2023/04/22 04:29:23;;;;;;;8.13;5.87;;;;;;;;;;5041568;28;20232;-51
2023/04/22 04:31:50;;;;;;;8.65;6.55;;;;;;;;;;5043335;28;20247;-50
2023/04/22 04:34:18;;;;;;;9.38;6.70;;;;;;;;;;5043235;28;20244;-51
2023/04/22 04:36:45;;;;;;;6.60;5.95;;;;;;;;;;5042676;28;20311;-51
2023/04/22 04:39:12;;;;;;;7.88;6.75;;;;;;;;;;5043695;28;20888;-51
2023/04/22 04:41:40;;;;;;;11.63;7.45;;;;;;;;;;5044422;28;20236;-51
2023/04/22 04:44:06;;;;;;;9.47;6.67;;;;;;;;;;5039263;28;20309;-51
2023/04/22 04:46:36;;;;;;;10.77;8.00;;;;;;;;;;5043926;28;20231;-51
2023/04/22 04:49:03;;;;;;;6.77;6.17;;;;;;;;;;5043703;28;20239;-50
2023/04/22 04:51:32;;;;;;;12.43;7.23;;;;;;;;;;5039415;28;20286;-53
2023/04/22 04:53:58;;;;;;;7.67;6.97;;;;;;;;;;5042454;28;20248;-51
2023/04/22 04:56:25;;;;;;;9.70;8.17;;;;;;;;;;5044543;28;20247;-52
2023/04/22 04:58:51;;;;;;;8.83;7.90;;;;;;;;;;5042692;28;20235;-50
2023/04/22 05:01:18;;;;;;;10.70;8.27;;;;;;;;;;5042328;28;20236;-52
2023/04/22 05:03:45;;;;;;;8.47;6.63;;;;;;;;;;5040633;28;20219;-51
2023/04/22 05:06:11;;;;;;;8.30;7.50;;;;;;;;;;5044142;28;20232;-51
2023/04/22 05:08:39;;;;;;;10.20;8.17;;;;;;;;;;5041537;28;20282;-51
2023/04/22 05:11:05;;;;;;;9.93;7.78;;;;;;;;;;5040274;28;20248;-51
2023/04/22 05:13:32;;;;;;;8.70;7.43;;;;;;;;;;5031745;28;20236;-51
2023/04/22 05:15:59;;;;;;;10.13;8.13;;;;;;;;;;5042226;28;20289;-50
2023/04/22 05:18:25;;;;;;;9.47;7.93;;;;;;;;;;5041103;28;20241;-50
2023/04/22 05:20:52;;;;;;;12.57;7.53;;;;;;;;;;5044198;28;20816;-51
2023/04/22 05:23:18;;;;;;;9.57;7.60;;;;;;;;;;5046132;28;20239;-51
2023/04/22 05:25:46;;;;;;;13.20;7.60;;;;;;;;;;5049006;28;20714;-51
2023/04/22 05:28:13;;;;;;;8.67;7.77;;;;;;;;;;5047454;28;20239;-52
2023/04/22 05:30:40;;;;;;;9.60;7.37;;;;;;;;;;5044848;28;20231;-52
2023/04/22 05:33:07;;;;;;;9.80;8.03;;;;;;;;;;5047386;28;20909;-52
2023/04/22 05:35:34;;;;;;;8.33;7.37;;;;;;;;;;5046752;28;20321;-51
2023/04/22 05:38:00;;;;;;;8.67;7.70;;;;;;;;;;5043768;28;20616;-51
2023/04/22 05:40:27;;;;;;;9.43;7.30;;;;;;;;;;5046511;28;20232;-50
2023/04/22 05:42:55;;;;;;;8.70;7.73;;;;;;;;;;5047319;28;20294;-51
2023/04/22 05:45:22;;;;;;;7.93;7.17;;;;;;;;;;5047735;28;20235;-50
2023/04/22 05:47:48;;;;;;;16.80;7.97;;;;;;;;;;5047992;28;20228;-52
2023/04/22 05:50:15;;;;;;;8.40;7.50;;;;;;;;;;5043360;28;20243;-52
2023/04/22 05:52:42;;;;;;;11.20;9.00;;;;;;;;;;5047431;28;20316;-51
2023/04/22 05:55:08;;;;;;;9.97;8.17;;;;;;;;;;5045851;28;20235;-51
2023/04/22 05:57:35;;;;;;;13.13;8.07;;;;;;;;;;5044852;28;20240;-51
2023/04/22 06:00:03;;;;;;;11.25;8.02;;;;;;;;;;5047067;28;20242;-52
2023/04/22 06:02:30;;;;;;;8.48;7.68;;;;;;;;;;5047337;28;20735;-52
2023/04/22 06:04:57;;;;;;;13.20;7.67;;;;;;;;;;5045759;28;20232;-57
2023/04/22 06:07:23;;;;;;;7.95;7.15;;;;;;;;;;5035701;28;20695;-50
2023/04/22 06:09:50;;;;;;;10.18;8.25;;;;;;;;;;5043517;28;20258;-52
2023/04/22 06:12:17;;;;;;;10.13;8.23;;;;;;;;;;5047771;28;20219;-52
2023/04/22 06:14:43;;;;;;;7.85;7.05;;;;;;;;;;5049136;28;20323;-52
2023/04/22 06:17:12;;;;;;;7.97;7.18;;;;;;;;;;5048602;28;20802;-51
2023/04/22 06:19:38;;;;;;;9.80;7.80;;;;;;;;;;5048493;28;20232;-53
2023/04/22 06:22:05;;;;;;;11.18;7.90;;;;;;;;;;5049497;28;20296;-51
2023/04/22 06:24:31;;;;;;;7.93;7.13;;;;;;;;;;5042606;28;20232;-51
2023/04/22 06:26:58;;;;;;;11.23;8.23;;;;;;;;;;5049598;28;20235;-51
2023/04/22 06:29:25;;;;;;;11.77;7.72;;;;;;;;;;5046388;28;20231;-51
2023/04/22 06:31:52;;;;;;;12.88;7.97;;;;;;;;;;5043233;28;20247;-50
2023/04/22 06:34:20;;;;;;;8.65;7.68;;;;;;;;;;5041309;28;20237;-52
2023/04/22 06:36:47;;;;;;;9.05;8.10;;;;;;;;;;5049316;28;20823;-51
2023/04/22 06:39:13;;;;;;;10.07;7.75;;;;;;;;;;5048286;28;20324;-52
2023/04/22 06:41:43;;;;;;;10.73;7.97;;;;;;;;;;5043446;28;20231;-51
2023/04/22 06:44:10;;;;;;;9.15;8.07;;;;;;;;;;5047594;28;20228;-52
2023/04/22 06:46:37;;;;;;;9.85;8.30;;;;;;;;;;5049018;28;20643;-51
2023/04/22 06:49:03;;;;;;;9.27;8.38;;;;;;;;;;5046560;28;20232;-52
2023/04/22 06:51:31;;;;;;;8.00;7.20;;;;;;;;;;5048165;28;20234;-51
2023/04/22 06:53:58;;;;;;;10.68;7.13;;;;;;;;;;5044070;28;20235;-52
2023/04/22 06:56:25;;;;;;;7.50;6.75;;;;;;;;;;5040454;28;20860;-50
2023/04/22 06:58:51;;;;;;;9.50;8.48;;;;;;;;;;5041185;28;20323;-52
2023/04/22 07:01:18;;;;;;;12.25;8.75;;;;;;;;;;5045658;28;20251;-51
2023/04/22 07:03:45;;;;;;;9.95;8.13;;;;;;;;;;5045030;28;20224;-52
2023/04/22 07:06:11;;;;;;;8.60;7.55;;;;;;;;;;5043883;28;20236;-52
2023/04/22 07:08:39;;;;;;;9.00;7.95;;;;;;;;;;5041686;28;20784;-52
2023/04/22 07:11:06;;;;;;;12.63;8.00;;;;;;;;;;5042656;28;20653;-50
2023/04/22 07:13:33;;;;;;;10.80;8.05;;;;;;;;;;5045261;28;20228;-51
2023/04/22 07:15:59;;;;;;;12.40;8.82;;;;;;;;;;5045124;28;20928;-51
2023/04/22 07:18:26;;;;;;;9.20;7.72;;;;;;;;;;5044787;28;20785;-50
2023/04/22 07:20:52;;;;;;;9.70;7.75;;;;;;;;;;5043579;28;20325;-51
2023/04/22 07:23:19;;;;;;;9.80;8.38;;;;;;;;;;5039781;28;20232;-52
2023/04/22 07:25:47;;;;;;;11.70;8.48;;;;;;;;;;5041823;28;20228;-51
2023/04/22 07:28:14;;;;;;;10.48;8.52;;;;;;;;;;5044768;28;20228;-50
2023/04/22 07:30:41;;;;;;;9.07;8.18;;;;;;;;;;5045422;28;20243;-51
2023/04/22 07:33:07;;;;;;;8.07;7.18;;;;;;;;;;5040228;28;20239;-52
2023/04/22 07:35:34;;;;;;;8.70;7.60;;;;;;;;;;5046104;28;20332;-51
2023/04/22 07:38:00;;;;;;;8.82;7.53;;;;;;;;;;5042485;28;20256;-51
2023/04/22 07:40:27;;;;;;;9.02;8.05;;;;;;;;;;5044942;28;20259;-52
2023/04/22 07:42:54;;;;;;;11.10;8.60;;;;;;;;;;5041908;28;20238;-51
2023/04/22 07:45:21;;;;;;;9.27;7.10;;;;;;;;;;5044472;28;20238;-51
2023/04/22 07:47:48;;;;;;;9.73;8.43;;;;;;;;;;5044193;28;20307;-50
2023/04/22 07:50:14;;;;;;;8.45;7.50;;;;;;;;;;5040181;28;20707;-50
2023/04/22 07:52:41;;;;;;;8.65;7.25;;;;;;;;;;5046878;28;20310;-61
2023/04/22 07:55:08;;;;;;;9.93;7.55;;;;;;;;;;5047831;28;20239;-53
2023/04/22 07:57:37;;;;;;;9.02;8.00;;;;;;;;;;5045740;28;20227;-51
2023/04/22 08:00:07;;;;;;;8.68;7.78;;;;;;;;;;5045036;28;20311;-51
2023/04/22 08:02:34;;;;;;;9.93;7.63;;;;;;;;;;5048896;28;20236;-52
2023/04/22 08:05:00;;;;;;;7.97;7.15;;;;;;;;;;5046486;28;20244;-53
2023/04/22 08:07:28;;;;;;;10.45;7.93;;;;;;;;;;5038778;28;20264;-53
2023/04/22 08:09:55;;;;;;;8.30;7.47;;;;;;;;;;5046538;28;20235;-50
2023/04/22 08:12:22;;;;;;;8.38;7.53;;;;;;;;;;5047960;28;20250;-53
2023/04/22 08:14:48;;;;;;;11.98;7.47;;;;;;;;;;5047645;28;20224;-53
2023/04/22 08:17:20;;;;;;;9.85;8.13;;;;;;;;;;5046072;28;20646;-51
2023/04/22 08:19:47;;;;;;;7.53;6.78;;;;;;;;;;5038227;28;20294;-51
2023/04/22 08:22:13;;;;;;;7.70;7.00;;;;;;;;;;5042936;28;20228;-52
2023/04/22 08:24:40;;;;;;;7.63;6.93;;;;;;;;;;5045414;28;20227;-57
2023/04/22 08:27:07;;;;;;;9.80;7.60;;;;;;;;;;5046371;28;20250;-52
2023/04/22 08:29:34;;;;;;;9.48;7.70;;;;;;;;;;5046032;28;20239;-51
2023/04/22 08:32:00;;;;;;;7.93;7.15;;;;;;;;;;5047712;28;20698;-55
2023/04/22 08:34:28;;;;;;;9.05;7.97;;;;;;;;;;5047224;28;20236;-51
2023/04/22 08:36:55;;;;;;;11.57;7.95;;;;;;;;;;5045536;28;20246;-52
2023/04/22 08:39:21;;;;;;;8.90;7.20;;;;;;;;;;5045706;28;20239;-51
2023/04/22 08:41:48;;;;;;;8.50;6.82;;;;;;;;;;5045097;28;20236;-58
2023/04/22 08:44:16;;;;;;;8.10;6.28;;;;;;;;;;5046532;28;20305;-51
2023/04/22 08:46:45;;;;;;;8.90;6.30;;;;;;;;;;5044357;28;20236;-52
2023/04/22 08:49:12;;;;;;;7.32;6.32;;;;;;;;;;5047051;28;20231;-52
2023/04/22 08:51:40;;;;;;;8.38;6.72;;;;;;;;;;5039012;28;20714;-52
2023/04/22 08:54:08;;;;;;;13.88;7.00;;;;;;;;;;5047569;28;20235;-50
2023/04/22 08:56:35;;;;;;;8.40;6.32;;;;;;;;;;5042826;28;20293;-51
2023/04/22 08:59:02;;;;;;;9.23;6.75;;;;;;;;;;5035565;28;20235;-54
2023/04/22 09:01:30;;;;;;;7.70;6.97;;;;;;;;;;5040693;28;20330;-50
2023/04/22 09:03:58;;;;;;;8.00;6.55;;;;;;;;;;5040987;28;20242;-51
2023/04/22 09:06:26;;;;;;;7.38;6.75;;;;;;;;;;5043864;28;20223;-50
2023/04/22 09:08:54;;;;;;;7.93;6.22;;;;;;;;;;5043575;28;20243;-51
2023/04/22 09:11:21;;;;;;;6.50;5.78;;;;;;;;;;5045628;28;20708;-50
2023/04/22 09:13:47;;;;;;;8.65;7.47;;;;;;;;;;5043720;28;20223;-52
2023/04/22 09:16:14;;;;;;;7.15;6.20;;;;;;;;;;5043156;28;20240;-51
2023/04/22 09:18:41;;;;;;;7.40;6.70;;;;;;;;;;5043677;28;20591;-51
2023/04/22 09:21:08;;;;;;;7.57;5.70;;;;;;;;;;5028881;28;20244;-51
2023/04/22 09:23:43;;;;;;;7.55;5.70;;;;;;;;;;5038997;28;20232;-51
2023/04/22 09:26:11;;;;;;;6.85;6.15;;;;;;;;;;5043149;28;20266;-52
2023/04/22 09:28:37;;;;;;;7.10;5.55;;;;;;;;;;5038507;28;20232;-52
2023/04/22 09:31:04;;;;;;;9.35;5.45;;;;;;;;;;5042754;28;20243;-52
2023/04/22 09:33:31;;;;;;;10.30;6.70;;;;;;;;;;5038796;28;20728;-51
2023/04/22 09:35:57;;;;;;;6.45;5.82;;;;;;;;;;5036129;28;20248;-52
2023/04/22 09:38:24;;;;;;;6.53;5.93;;;;;;;;;;5032261;28;20231;-52
2023/04/22 09:40:50;;;;;;;7.95;6.13;;;;;;;;;;5035009;28;20227;-52
2023/04/22 09:43:19;;;;;;;6.60;5.88;;;;;;;;;;5034237;28;20255;-51
2023/04/22 09:45:46;;;;;;;7.95;6.93;;;;;;;;;;5034007;28;20867;-51
2023/04/22 09:48:14;;;;;;;7.13;5.80;;;;;;;;;;5035024;28;20258;-52
2023/04/22 09:50:43;;;;;;;7.32;6.18;;;;;;;;;;5040378;28;20228;-51
2023/04/22 09:53:10;;;;;;;8.95;6.05;;;;;;;;;;5036747;28;20318;-52
2023/04/22 09:55:38;;;;;;;6.38;5.70;;;;;;;;;;5028091;28;20243;-54
2023/04/22 09:58:06;;;;;;;9.88;5.88;;;;;;;;;;5030523;28;20240;-52
2023/04/22 10:00:36;;;;;;;7.35;5.85;;;;;;;;;;5037892;28;20236;-51
2023/04/22 10:03:03;;;;;;;6.60;5.22;;;;;;;;;;5038641;28;20753;-51
2023/04/22 10:05:29;;;;;;;7.05;5.57;;;;;;;;;;5043157;28;20238;-51
2023/04/22 10:07:56;;;;;;;7.53;5.60;;;;;;;;;;5041813;28;20247;-51
2023/04/22 10:10:22;;;;;;;6.50;5.75;;;;;;;;;;5039326;28;20681;-51
2023/04/22 10:12:50;;;;;;;8.35;6.18;;;;;;;;;;5044701;28;20220;-52
2023/04/22 10:15:16;;;;;;;8.20;5.63;;;;;;;;;;5037321;28;20658;-51
2023/04/22 10:17:45;;;;;;;6.38;5.55;;;;;;;;;;5040166;28;20236;-52
2023/04/22 10:20:16;;;;;;;6.75;5.32;;;;;;;;;;5039400;28;20233;-52
2023/04/22 10:22:43;;;;;;;8.25;5.63;;;;;;;;;;5040814;28;20231;-52
2023/04/22 10:25:13;;;;;;;7.95;6.13;;;;;;;;;;5041825;28;20231;-51
2023/04/22 10:27:40;;;;;;;5.85;5.05;;;;;;;;;;5038479;28;20346;-52
2023/04/22 10:30:08;;;;;;;6.70;5.00;;;;;;;;;;5043114;28;20244;-52
2023/04/22 10:32:35;;;;;;;6.90;5.32;;;;;;;;;;5034790;28;20263;-51
2023/04/22 10:35:11;;;;;;;7.03;5.07;;;;;;;;;;5042278;28;20242;-51
2023/04/22 10:37:40;;;;;;;5.43;4.93;;;;;;;;;;5044378;28;20229;-52
2023/04/22 10:40:09;;;;;;;6.03;5.20;;;;;;;;;;5039294;28;20245;-51
2023/04/22 10:42:38;;;;;;;7.95;4.90;;;;;;;;;;5039805;28;20243;-51
2023/04/22 10:45:06;;;;;;;9.80;5.30;;;;;;;;;;5038663;28;20236;-50
2023/04/22 10:47:33;;;;;;;8.63;5.63;;;;;;;;;;5042678;28;20354;-51
2023/04/22 10:50:15;;;;;;;6.40;5.05;;;;;;;;;;5037711;28;20249;-52
2023/04/22 10:52:42;;;;;;;10.00;6.47;;;;;;;;;;5037768;28;20752;-51
2023/04/22 10:55:09;;;;;;;5.78;5.18;;;;;;;;;;5042890;28;20239;-50
2023/04/22 10:57:40;;;;;;;6.15;4.93;;;;;;;;;;5038860;28;20227;-52
2023/04/22 11:00:17;;;;;;;6.05;5.18;;;;;;;;;;5043288;28;20637;-52
2023/04/22 11:02:44;;;;;;;7.30;4.93;;;;;;;;;;5030748;28;20231;-51
2023/04/22 11:05:23;;;;;;;6.72;4.78;;;;;;;;;;5039883;28;20238;-51
2023/04/22 11:07:50;;;;;;;8.57;5.20;;;;;;;;;;5036333;28;20322;-50
2023/04/22 11:10:33;;;;;;;5.95;5.35;;;;;;;;;;5033381;28;20685;-52
2023/04/22 11:13:00;;;;;;;5.25;4.75;;;;;;;;;;5037220;28;20266;-54
2023/04/22 11:15:29;;;;;;;6.57;5.10;;;;;;;;;;5043567;28;20631;-52
2023/04/22 11:17:55;;;;;;;9.65;5.55;;;;;;;;;;5033155;28;20319;-51
2023/04/22 11:20:23;;;;;;;7.32;5.00;;;;;;;;;;5037121;28;20232;-50
2023/04/22 11:22:51;;;;;;;7.78;5.75;;;;;;;;;;5036801;28;20286;-50
2023/04/22 11:25:18;;;;;;;6.05;5.30;;;;;;;;;;5039145;28;20289;-51
2023/04/22 11:27:45;;;;;;;8.32;5.47;;;;;;;;;;5035799;28;20263;-51
2023/04/22 11:30:13;;;;;;;6.65;5.28;;;;;;;;;;5033712;28;20267;-51
2023/04/22 11:32:40;;;;;;;8.75;5.95;;;;;;;;;;5035958;28;20242;-52
2023/04/22 11:35:08;;;;;;;6.15;5.55;;;;;;;;;;5032571;28;20241;-50
2023/04/22 11:37:41;;;;;;;6.72;5.53;;;;;;;;;;5034123;28;20228;-51
2023/04/22 11:40:09;;;;;;;5.55;4.95;;;;;;;;;;5039572;28;20622;-51
2023/04/22 11:42:35;;;;;;;5.90;5.32;;;;;;;;;;5039422;28;20230;-50
2023/04/22 11:45:02;;;;;;;6.43;4.97;;;;;;;;;;5029633;28;20726;-51
2023/04/22 11:47:29;;;;;;;5.60;5.03;;;;;;;;;;5042722;28;20236;-51
2023/04/22 11:49:57;;;;;;;5.97;5.38;;;;;;;;;;5042646;28;20795;-51
2023/04/22 11:52:25;;;;;;;8.13;5.00;;;;;;;;;;5039415;28;20232;-51
2023/04/22 11:54:52;;;;;;;5.88;5.30;;;;;;;;;;5040943;28;20227;-50
2023/04/22 11:57:20;;;;;;;7.05;5.60;;;;;;;;;;5032684;28;20224;-51
2023/04/22 11:59:56;;;;;;;7.95;5.25;;;;;;;;;;5035925;28;20263;-51
2023/04/22 12:02:23;;;;;;;5.43;4.95;;;;;;;;;;5037008;28;20229;-51
2023/04/22 12:04:49;;;;;;;5.10;4.60;;;;;;;;;;5042040;28;20658;-52
2023/04/22 12:07:18;;;;;;;9.23;5.28;;;;;;;;;;5048339;28;20865;-51
2023/04/22 12:09:45;;;;;;;5.45;4.95;;;;;;;;;;5045815;28;20231;-51
2023/04/22 12:12:14;;;;;;;8.13;5.40;;;;;;;;;;5048075;28;20333;-51
2023/04/22 12:14:45;;;;;;;5.25;4.75;;;;;;;;;;5048720;28;20238;-56
2023/04/22 12:17:12;;;;;;;6.88;5.15;;;;;;;;;;5043495;28;20854;-54
2023/04/22 12:19:38;;;;;;;4.70;4.25;;;;;;;;;;5034642;28;20259;-52
2023/04/22 12:22:05;;;;;;;6.68;4.82;;;;;;;;;;5037249;28;20239;-51
2023/04/22 12:24:31;;;;;;;5.22;4.45;;;;;;;;;;5039557;28;20228;-51
2023/04/22 12:26:58;;;;;;;5.90;4.53;;;;;;;;;;5036453;28;20278;-51
2023/04/22 12:29:31;;;;;;;5.72;5.10;;;;;;;;;;5038170;28;20231;-50
2023/04/22 12:31:57;;;;;;;6.20;4.60;;;;;;;;;;5034610;28;21013;-52
2023/04/22 12:34:24;;;;;;;6.35;4.15;;;;;;;;;;5041114;28;20281;-50
2023/04/22 12:36:50;;;;;;;5.68;4.82;;;;;;;;;;5040992;28;20285;-50
2023/04/22 12:39:17;;;;;;;4.85;4.45;;;;;;;;;;5041434;28;20224;-52
2023/04/22 12:41:44;;;;;;;9.10;4.78;;;;;;;;;;5043489;28;20319;-56
2023/04/22 12:44:11;;;;;;;4.97;4.43;;;;;;;;;;5043475;28;20236;-50
2023/04/22 12:46:39;;;;;;;5.68;4.57;;;;;;;;;;5044048;28;20255;-52
2023/04/22 12:49:05;;;;;;;5.40;4.90;;;;;;;;;;5040204;28;20647;-51
2023/04/22 12:51:32;;;;;;;5.13;4.53;;;;;;;;;;5036550;28;20239;-56
2023/04/22 12:53:59;;;;;;;4.45;4.05;;;;;;;;;;5041968;28;20544;-52
2023/04/22 12:56:25;;;;;;;5.95;5.25;;;;;;;;;;5033276;28;20597;-53
2023/04/22 12:58:52;;;;;;;7.57;4.95;;;;;;;;;;5041113;28;20228;-54
2023/04/22 13:01:18;;;;;;;5.07;4.65;;;;;;;;;;5037589;28;20323;-53
2023/04/22 13:03:51;;;;;;;4.95;4.45;;;;;;;;;;5039584;28;20285;-51
2023/04/22 13:06:18;;;;;;;6.78;5.05;;;;;;;;;;5038753;28;20231;-57
2023/04/22 13:08:44;;;;;;;7.07;4.93;;;;;;;;;;5040672;28;20236;-52
2023/04/22 13:11:11;;;;;;;7.25;4.78;;;;;;;;;;5041741;28;20319;-52
2023/04/22 13:13:38;;;;;;;5.40;4.45;;;;;;;;;;5040555;28;20286;-52
2023/04/22 13:16:05;;;;;;;6.70;4.55;;;;;;;;;;5045495;28;20247;-56
2023/04/22 13:18:31;;;;;;;6.15;5.10;;;;;;;;;;5056644;28;20281;-55
2023/04/22 13:20:59;;;;;;;6.72;4.50;;;;;;;;;;5057136;28;20331;-50
2023/04/22 13:23:26;;;;;;;5.38;4.88;;;;;;;;;;5051733;28;20319;-52
2023/04/22 13:25:53;;;;;;;8.77;5.55;;;;;;;;;;5047011;28;20254;-51
2023/04/22 13:28:19;;;;;;;5.78;5.18;;;;;;;;;;5049045;28;20320;-51
2023/04/22 13:30:46;;;;;;;6.40;5.80;;;;;;;;;;5047511;28;20239;-51
2023/04/22 13:33:12;;;;;;;7.80;5.60;;;;;;;;;;5045886;28;20263;-50
2023/04/22 13:35:39;;;;;;;5.93;5.38;;;;;;;;;;5052920;28;20653;-51
2023/04/22 13:38:07;;;;;;;5.68;5.07;;;;;;;;;;5057065;28;20236;-52
2023/04/22 13:40:34;;;;;;;6.75;5.38;;;;;;;;;;5052321;28;20243;-52
2023/04/22 13:43:03;;;;;;;6.63;4.90;;;;;;;;;;5047211;28;20310;-50
2023/04/22 13:45:29;;;;;;;6.82;5.63;;;;;;;;;;5043587;28;20231;-50
2023/04/22 13:47:56;;;;;;;6.65;5.28;;;;;;;;;;5039575;28;20263;-54
2023/04/22 13:50:23;;;;;;;12.43;5.72;;;;;;;;;;5045015;28;20236;-52
2023/04/22 13:52:49;;;;;;;8.70;5.43;;;;;;;;;;5046103;28;20305;-52
2023/04/22 13:55:17;;;;;;;7.70;5.43;;;;;;;;;;5048969;28;20293;-52
2023/04/22 13:57:44;;;;;;;6.88;4.90;;;;;;;;;;5044698;28;20233;-53
2023/04/22 14:00:12;;;;;;;8.50;5.93;;;;;;;;;;5045296;28;20250;-52
2023/04/22 14:02:38;;;;;;;6.53;5.18;;;;;;;;;;5047604;28;20733;-52
2023/04/22 14:05:06;;;;;;;8.43;5.57;;;;;;;;;;5048344;28;20232;-51
2023/04/22 14:07:32;;;;;;;9.40;5.93;;;;;;;;;;5048733;28;20224;-51
2023/04/22 14:09:59;;;;;;;6.70;5.65;;;;;;;;;;5047800;28;20236;-51
2023/04/22 14:12:28;;;;;;;7.43;5.63;;;;;;;;;;5047619;28;20306;-51
2023/04/22 14:14:54;;;;;;;6.25;5.55;;;;;;;;;;5046868;28;20766;-52
2023/04/22 14:17:21;;;;;;;6.57;5.53;;;;;;;;;;5047474;28;20235;-52
2023/04/22 14:19:48;;;;;;;5.82;4.78;;;;;;;;;;5045620;28;20285;-52
2023/04/22 14:22:14;;;;;;;5.75;5.25;;;;;;;;;;5046517;28;20234;-51
2023/04/22 14:24:41;;;;;;;5.53;5.03;;;;;;;;;;5034245;28;20644;-52
2023/04/22 14:27:08;;;;;;;7.40;5.93;;;;;;;;;;5033458;28;20315;-51
2023/04/22 14:29:36;;;;;;;5.35;4.85;;;;;;;;;;5040105;28;20228;-52
2023/04/22 14:32:03;;;;;;;5.85;5.28;;;;;;;;;;5039739;28;20238;-51
2023/04/22 14:34:29;;;;;;;6.55;5.50;;;;;;;;;;5040749;28;20240;-52
2023/04/22 14:36:56;;;;;;;8.93;6.07;;;;;;;;;;5038080;28;20244;-52
2023/04/22 14:39:22;;;;;;;8.25;4.93;;;;;;;;;;5026829;28;20241;-52
2023/04/22 14:41:49;;;;;;;7.57;4.85;;;;;;;;;;5039596;28;20242;-52